• Join FlightAware (Why Join?)
  • Login
  • US Flag 
06:56AM EST


 

Airport Tracker/Info


-or-


 

Live Flight TrackerFlight Track Log ✈ SLI2200 ✈ 24-Apr-2013 ✈ MMCU / CUU - MMMY / MTY

Flight Track Log - Related Links

Times and Time Zones

All times are in EDT time to prevent confusion due to time zone crossing. See the SLI2200 flight status page for this flight to view local times or setup timezone preferences in your user account.

Time Position Orientation Groundspeed Altitude Reporting Facility
EDT Latitude Longitude Course Direction KTS MPH feet Rate Location/Type
08:12AM 28.5247 -105.5834 118° Southeast  Level Estimated
08:13AM 28.4799 -105.4883 118° Southeast  Level Estimated
08:14AM 28.4352 -105.3933 118° Southeast  Level Estimated
08:15AM 28.3903 -105.2984 118° Southeast  Level Estimated
08:16AM 28.3454 -105.2035 118° Southeast  Level Estimated
08:17AM 28.3004 -105.1087 118° Southeast  Level Estimated
08:18AM 28.2554 -105.0141 118° Southeast  Level Estimated
08:19AM 28.2102 -104.9194 118° Southeast  Level Estimated
08:20AM 28.1651 -104.8249 118° Southeast  Level Estimated
08:21AM 28.1198 -104.7305 118° Southeast  Level Estimated
08:22AM 28.0745 -104.6361 119° Southeast  Level Estimated
08:23AM 28.0291 -104.5418 119° Southeast  Level Estimated
08:24AM 27.9837 -104.4476 119° Southeast  Level Estimated
08:25AM 27.9382 -104.3535 119° Southeast  Level Estimated
08:26AM 27.8926 -104.2594 119° Southeast  Level Estimated
08:27AM 27.8470 -104.1655 119° Southeast  Level Estimated
08:28AM 27.8013 -104.0716 119° Southeast  Level Estimated
08:29AM 27.7556 -103.9778 119° Southeast  Level Estimated
08:30AM 27.7097 -103.8840 119° Southeast  Level Estimated
08:31AM 27.6639 -103.7904 119° Southeast  Level Estimated
08:32AM 27.6179 -103.6968 119° Southeast  Level Estimated
08:33AM 27.5719 -103.6033 119° Southeast  Level Estimated
08:34AM 27.5258 -103.5099 119° Southeast  Level Estimated
08:35AM 27.4797 -103.4165 119° Southeast  Level Estimated
08:36AM 27.4335 -103.3233 119° Southeast  Level Estimated
08:37AM 27.3872 -103.2301 119° Southeast  Level Estimated
08:38AM 27.3409 -103.1370 119° Southeast  Level Estimated
08:39AM 27.2945 -103.0440 119° Southeast  Level Estimated
08:40AM 27.2481 -102.9510 119° Southeast  Level Estimated
08:41AM 27.2016 -102.8581 119° Southeast  Level Estimated
08:42AM 27.1550 -102.7653 119° Southeast  Level Estimated
08:43AM 27.1084 -102.6726 119° Southeast  Level Estimated
08:44AM 27.0617 -102.5800 119° Southeast  Level Estimated
08:45AM 27.0149 -102.4874 120° Southeast  Level Estimated
08:46AM 26.9681 -102.3949 120° Southeast  Level Estimated
08:47AM 26.9213 -102.3025 120° Southeast  Level Estimated
08:48AM 26.8743 -102.2102 120° Southeast  Level Estimated
08:49AM 26.8274 -102.1179 120° Southeast  Level Estimated
08:50AM 26.7803 -102.0257 120° Southeast  Level Estimated
08:51AM 26.7332 -101.9336 120° Southeast  Level Estimated
08:52AM 26.6860 -101.8416 120° Southeast  Level Estimated
08:53AM 26.6388 -101.7497 120° Southeast  Level Estimated
08:54AM 26.5915 -101.6578 120° Southeast  Level Estimated
08:55AM 26.5442 -101.5660 120° Southeast  Level Estimated
08:56AM 26.4968 -101.4743 120° Southeast  Level Estimated
08:57AM 26.4493 -101.3826 120° Southeast  Level Estimated
08:58AM 26.4018 -101.2910 120° Southeast  Level Estimated
08:59AM 26.3542 -101.1995 120° Southeast  Level Estimated
09:00AM 26.3066 -101.1081 120° Southeast  Level Estimated
09:01AM 26.2589 -101.0168 120° Southeast  Level Estimated
09:02AM 26.2111 -100.9255 120° Southeast  Level Estimated
09:03AM 26.1633 -100.8343 120° Southeast  Level Estimated
09:04AM 26.1154 -100.7432 120° Southeast  Level Estimated
09:05AM 26.0675 -100.6521 120° Southeast  Level Estimated
09:06AM 26.0195 -100.5612 120° Southeast  Level Estimated
09:07AM 25.9715 -100.4703 120° Southeast  Level Estimated
09:08AM 25.9234 -100.3794 120° Southeast  Level Estimated
09:09AM 25.8752 -100.2887 121° Southeast  Level Estimated
09:10AM 25.8270 -100.1980 121° Southeast  Level Estimated
09:11AM 25.7788 -100.1074 121° Southeast  Level Estimated
09:12AM 25.7785 -100.1069 121° Southeast  Level Estimated
09:13AM 25.7785 -100.1069 119° Southeast  Level Estimated
09:14AM 25.7785 -100.1069 119° Southeast  Level Estimated
09:15AM 25.7785 -100.1069 119° Southeast  Level Estimated
09:16AM 25.7785 -100.1069 119° Southeast  Level Estimated
09:17AM 25.7785 -100.1069 119° Southeast  Level Estimated
09:18AM 25.7785 -100.1069 119° Southeast  Level Estimated
09:19AM 25.7785 -100.1069 119° Southeast  Level Estimated
09:20AM 25.7785 -100.1069 119° Southeast  Level Estimated
09:21AM 25.7785 -100.1069 119° Southeast  Level Estimated
09:22AM 25.7785 -100.1069 119° Southeast  Level Estimated
09:23AM 25.7785 -100.1069 119° Southeast  Level Estimated
09:24AM 25.7785 -100.1069 119° Southeast  Level Estimated
09:25AM 25.7785 -100.1069 119° Southeast  Level Estimated
09:26AM 25.7785 -100.1069 119° Southeast  Level Estimated
09:27AM 25.7785 -100.1069 119° Southeast  Level Estimated